Time;durP1;ratioP1;P1;durP2;ratioP2;P2;SDS_P1;SDS_P2;PMS_P1;PMS_P2;Temp;Humidity;BMP_temperature;BMP_pressure;BME280_temperature;BME280_humidity;BME280_pressure;Samples;Min_cycle;Max_cycle;Signal;HPM_P1;HPM_P2
2021/07/29 02:52:38;;;;;;;3.60;3.30;;;18.60;99.90;;;;;;1262163;23;21127;-90
2021/07/29 02:55:05;;;;;;;4.40;4.10;;;18.60;99.90;;;;;;5016977;28;20693;-91
2021/07/29 10:10:54;;;;;;;3.67;1.97;;;21.50;99.90;;;;;;5006488;28;20652;-89
2021/07/29 10:13:35;;;;;;;3.57;2.10;;;21.60;99.90;;;;;;5011481;28;20964;-89
2021/07/29 10:16:01;;;;;;;3.37;1.90;;;21.50;99.90;;;;;;5015470;28;20203;-91
2021/07/29 10:18:26;;;;;;;2.87;1.83;;;21.60;99.90;;;;;;5024477;28;20635;-89
2021/07/29 10:21:23;;;;;;;3.53;2.37;;;21.50;99.90;;;;;;5016945;28;20225;-91
2021/07/29 10:23:55;;;;;;;3.80;2.07;;;21.50;99.90;;;;;;5027699;28;20265;-90
2021/07/29 10:26:21;;;;;;;2.63;2.10;;;21.50;99.90;;;;;;5022591;28;21077;-91
2021/07/29 10:28:47;;;;;;;2.40;2.17;;;21.60;99.90;;;;;;5028941;28;20720;-92
2021/07/29 10:31:15;;;;;;;1.70;1.60;;;21.70;99.90;;;;;;5036964;28;20657;-90
2021/07/29 10:33:42;;;;;;;2.90;2.10;;;21.70;99.90;;;;;;5032626;28;20709;-90
2021/07/29 10:36:08;;;;;;;2.20;1.80;;;21.50;99.90;;;;;;5021596;28;20621;-91
2021/07/29 10:38:48;;;;;;;2.50;2.10;;;21.70;99.90;;;;;;5028201;28;20628;-91
2021/07/29 10:41:14;;;;;;;2.77;1.70;;;21.80;99.90;;;;;;5013552;28;20754;-90
2021/07/29 10:43:41;;;;;;;4.77;2.10;;;22.00;99.90;;;;;;5032316;28;20621;-91
2021/07/29 10:46:07;;;;;;;2.00;1.80;;;22.00;99.90;;;;;;5018939;28;20640;-93
2021/07/29 10:48:43;;;;;;;4.70;1.97;;;22.10;99.90;;;;;;5018684;28;20636;-94
2021/07/29 10:51:14;;;;;;;2.50;2.03;;;22.10;99.90;;;;;;5019667;28;20631;-92
2021/07/29 10:53:45;;;;;;;2.93;2.10;;;22.00;99.90;;;;;;5032982;28;20648;-91
2021/07/29 10:56:12;;;;;;;2.83;2.10;;;21.60;99.90;;;;;;5016640;28;20704;-92
2021/07/29 10:58:48;;;;;;;5.43;2.40;;;21.90;99.90;;;;;;5014282;28;20731;-92
2021/07/29 11:01:15;;;;;;;2.93;1.90;;;22.00;99.90;;;;;;5033205;28;20644;-92
2021/07/29 11:03:47;;;;;;;2.80;2.57;;;22.10;99.90;;;;;;5019038;28;20700;-90
2021/07/29 11:06:23;;;;;;;5.30;2.60;;;22.00;99.90;;;;;;5014736;28;20632;-92
2021/07/29 11:08:55;;;;;;;2.27;2.07;;;22.20;99.90;;;;;;5030475;28;20628;-91
2021/07/29 11:55:22;;;;;;;5.87;2.27;;;22.70;99.90;;;;;;5025142;28;20690;-92
2021/07/29 11:57:47;;;;;;;2.83;2.40;;;22.80;99.90;;;;;;5000889;28;20751;-91
2021/07/29 12:00:16;;;;;;;3.47;2.53;;;22.80;99.90;;;;;;5017878;28;21616;-93
2021/07/29 12:02:42;;;;;;;6.40;2.13;;;23.00;99.90;;;;;;5003024;28;20221;-92
2021/07/29 12:05:11;;;;;;;4.57;2.47;;;23.20;99.90;;;;;;4987986;28;20780;-94
2021/07/29 12:07:41;;;;;;;4.80;2.40;;;23.20;99.90;;;;;;4979243;28;20190;-93
2021/07/29 12:10:07;;;;;;;4.30;2.27;;;23.40;99.90;;;;;;4976154;28;21428;-92
2021/07/29 12:12:33;;;;;;;4.47;2.77;;;23.60;99.90;;;;;;4984173;28;20672;-92
2021/07/29 12:14:59;;;;;;;2.27;2.17;;;23.60;99.90;;;;;;4979916;28;20614;-93
2021/07/29 12:17:25;;;;;;;2.67;2.47;;;23.60;99.90;;;;;;4985215;28;20651;-90
2021/07/29 12:19:58;;;;;;;4.80;2.23;;;23.60;99.90;;;;;;4980082;28;20229;-91
2021/07/29 12:22:28;;;;;;;4.20;2.43;;;23.80;99.90;;;;;;4974658;28;20218;-91
2021/07/29 12:24:56;;;;;;;2.40;2.00;;;23.90;99.90;;;;;;4991658;28;20628;-90
2021/07/29 12:27:24;;;;;;;5.63;2.30;;;23.80;99.90;;;;;;4975724;28;20618;-91
2021/07/29 12:29:49;;;;;;;3.87;2.57;;;23.80;99.90;;;;;;4994212;28;21276;-90
2021/07/29 12:32:31;;;;;;;7.30;2.57;;;23.70;99.90;;;;;;4985317;28;20649;-92
2021/07/29 12:34:57;;;;;;;3.37;2.30;;;23.70;99.90;;;;;;4980283;28;20195;-92
2021/07/29 12:37:37;;;;;;;5.10;2.50;;;23.80;99.90;;;;;;4979479;28;20701;-93
2021/07/29 12:40:32;;;;;;;4.33;2.90;;;23.80;99.90;;;;;;4972308;28;20217;-90
2021/07/29 12:43:25;;;;;;;3.87;1.77;;;23.70;99.90;;;;;;4971222;28;21252;-93
2021/07/29 12:45:55;;;;;;;4.20;2.00;;;23.70;99.90;;;;;;4972274;28;20709;-91
2021/07/29 12:48:26;;;;;;;6.40;2.50;;;23.70;99.90;;;;;;4988853;28;20621;-94
2021/07/29 12:50:53;;;;;;;3.70;2.20;;;23.80;99.90;;;;;;4982754;28;20646;-92
2021/07/29 12:53:18;;;;;;;3.43;2.10;;;24.00;99.90;;;;;;4986779;28;20622;-91
2021/07/29 12:55:46;;;;;;;6.20;2.03;;;24.20;99.90;;;;;;4986162;28;20664;-92
2021/07/29 12:58:12;;;;;;;3.20;1.97;;;24.20;99.90;;;;;;4981259;28;20289;-92
2021/07/29 13:00:47;;;;;;;2.80;1.90;;;24.40;99.90;;;;;;4989359;28;20633;-91
2021/07/29 13:03:35;;;;;;;2.73;2.07;;;24.50;99.90;;;;;;5000526;28;20209;-91
2021/07/29 13:06:01;;;;;;;5.10;2.07;;;24.70;99.90;;;;;;4978310;28;20652;-90
2021/07/29 13:08:34;;;;;;;1.97;1.77;;;24.60;99.90;;;;;;4975536;28;20632;-90
2021/07/29 13:11:01;;;;;;;4.83;1.90;;;24.70;99.90;;;;;;4970305;28;20645;-91
2021/07/29 13:13:28;;;;;;;4.70;2.17;;;24.90;99.90;;;;;;4980530;28;21208;-90
2021/07/29 13:15:54;;;;;;;2.27;1.90;;;24.90;99.90;;;;;;4999884;28;20662;-92
2021/07/29 13:18:21;;;;;;;4.77;2.50;;;25.00;99.90;;;;;;4990118;28;20717;-91
2021/07/29 13:20:49;;;;;;;3.00;2.30;;;25.10;99.90;;;;;;5001044;28;20657;-94
2021/07/29 13:23:19;;;;;;;4.00;2.10;;;25.00;99.90;;;;;;4971831;28;20680;-92
2021/07/29 13:25:46;;;;;;;4.10;2.27;;;24.90;99.90;;;;;;4992900;28;20630;-93
2021/07/29 13:28:13;;;;;;;4.40;2.20;;;24.70;99.90;;;;;;4996020;28;20630;-94
2021/07/29 13:30:39;;;;;;;4.53;1.80;;;24.60;99.90;;;;;;5000857;28;20716;-94
2021/07/29 13:33:05;;;;;;;2.90;2.33;;;24.50;99.90;;;;;;4974471;28;20659;-93
2021/07/29 13:35:55;;;;;;;3.60;2.30;;;24.40;99.90;;;;;;5002099;28;20201;-92
2021/07/29 13:38:23;;;;;;;4.40;2.30;;;24.40;99.90;;;;;;5011455;28;20198;-93
2021/07/29 13:41:21;;;;;;;4.03;2.33;;;24.40;99.90;;;;;;5101766;23;20679;-92
2021/07/29 13:51:37;;;;;;;4.37;2.00;;;24.00;99.90;;;;;;5112491;23;20674;-93
2021/07/29 16:58:59;;;;;;;3.37;2.27;;;25.30;99.90;;;;;;5007632;28;20670;-95
2021/07/29 17:01:30;;;;;;;3.23;1.87;;;25.50;99.90;;;;;;4994530;28;20685;-93
2021/07/29 17:03:56;;;;;;;1.83;1.70;;;25.30;99.90;;;;;;5007258;28;20334;-94
2021/07/29 17:06:22;;;;;;;2.70;1.70;;;25.20;99.90;;;;;;4999812;28;20641;-93
2021/07/29 17:08:48;;;;;;;3.90;2.00;;;25.30;99.90;;;;;;5001900;28;20189;-93
2021/07/29 17:11:14;;;;;;;3.87;1.90;;;25.30;99.90;;;;;;4975860;28;20649;-93
2021/07/29 17:13:47;;;;;;;2.13;1.87;;;25.10;99.90;;;;;;4999656;28;20170;-93
2021/07/29 17:16:19;;;;;;;3.43;1.80;;;24.90;99.90;;;;;;5000746;28;20202;-94
2021/07/29 17:18:45;;;;;;;3.77;1.77;;;24.90;99.90;;;;;;4992923;28;20803;-94
2021/07/29 17:21:11;;;;;;;3.00;2.00;;;24.80;99.90;;;;;;4995248;28;20638;-94
2021/07/29 17:23:41;;;;;;;4.80;1.67;;;24.60;99.90;;;;;;4980606;28;20296;-93
2021/07/29 17:26:08;;;;;;;2.63;1.77;;;24.50;99.90;;;;;;4995113;28;20631;-94
2021/07/29 17:28:35;;;;;;;2.27;1.80;;;24.20;99.90;;;;;;4997270;28;20625;-93
2021/07/29 17:31:05;;;;;;;3.10;1.70;;;24.20;99.90;;;;;;5106745;23;20787;-94
2021/07/29 17:33:31;;;;;;;4.77;1.90;;;24.10;99.90;;;;;;4986375;28;20669;-93
2021/07/29 17:35:59;;;;;;;2.17;1.90;;;23.90;99.90;;;;;;5003025;28;20683;-93
2021/07/29 17:38:27;;;;;;;2.20;1.70;;;24.10;99.90;;;;;;5016767;28;20201;-92
2021/07/29 17:41:03;;;;;;;3.00;2.00;;;24.00;99.90;;;;;;5016160;28;20797;-94
2021/07/29 17:43:29;;;;;;;2.50;1.70;;;23.90;99.90;;;;;;5021509;28;20682;-93
2021/07/29 17:45:54;;;;;;;3.10;1.80;;;24.20;99.90;;;;;;5003479;28;20640;-93
2021/07/29 17:48:23;;;;;;;3.47;1.87;;;24.40;99.90;;;;;;5005253;28;20192;-93
2021/07/29 17:50:49;;;;;;;3.97;2.00;;;24.30;99.90;;;;;;4994703;28;20223;-94
2021/07/29 17:53:20;;;;;;;2.97;1.80;;;24.10;99.90;;;;;;5000092;28;20625;-94
2021/07/29 17:55:46;;;;;;;2.00;1.90;;;23.90;99.90;;;;;;4982382;28;20218;-94
2021/07/29 17:58:11;;;;;;;3.20;1.80;;;23.70;99.90;;;;;;4995559;28;22212;-93
2021/07/29 18:00:37;;;;;;;4.97;1.60;;;23.60;99.90;;;;;;5000407;28;20217;-93
2021/07/29 18:03:13;;;;;;;4.97;1.90;;;23.40;99.90;;;;;;4996577;28;20325;-94
2021/07/29 18:05:38;;;;;;;4.40;2.10;;;23.20;99.90;;;;;;4974846;28;21131;-93
2021/07/29 18:08:05;;;;;;;9.33;2.20;;;23.10;99.90;;;;;;5000609;28;20661;-94
2021/07/29 18:10:35;;;;;;;3.70;1.77;;;23.00;99.90;;;;;;4986428;28;20218;-91
2021/07/29 18:13:06;;;;;;;3.03;2.00;;;22.90;99.90;;;;;;4959618;28;20640;-93
2021/07/29 18:15:34;;;;;;;3.63;2.10;;;22.70;99.90;;;;;;4996578;28;20621;-93
2021/07/29 18:18:00;;;;;;;2.33;1.53;;;22.70;99.90;;;;;;4995957;23;20671;-94
2021/07/29 18:20:32;;;;;;;2.13;1.67;;;22.60;99.90;;;;;;5000206;28;20621;-93
2021/07/29 18:25:34;;;;;;;4.30;1.67;;;22.50;99.90;;;;;;5176586;23;20664;-93
2021/07/29 18:28:01;;;;;;;2.80;1.67;;;22.60;99.90;;;;;;5001715;28;20633;-91
2021/07/29 18:30:30;;;;;;;4.73;1.97;;;22.40;99.90;;;;;;4980473;28;20653;-91
2021/07/29 18:33:00;;;;;;;2.10;1.53;;;22.30;99.90;;;;;;5003378;28;20609;-90
2021/07/29 18:35:46;;;;;;;4.67;2.00;;;22.10;99.90;;;;;;5002252;28;20653;-91
2021/07/29 18:38:18;;;;;;;3.80;2.00;;;22.10;99.90;;;;;;5010021;28;20621;-91
2021/07/29 18:43:21;;;;;;;2.53;1.70;;;22.00;99.90;;;;;;5017626;23;20677;-91
2021/07/29 18:45:53;;;;;;;1.70;1.40;;;22.10;99.90;;;;;;5070153;23;20668;-93
2021/07/29 18:48:41;;;;;;;2.40;1.60;;;22.00;99.90;;;;;;5036852;28;20627;-92
2021/07/29 18:51:07;;;;;;;4.13;1.80;;;22.00;99.90;;;;;;5008878;23;20694;-93
2021/07/29 18:53:36;;;;;;;4.80;1.60;;;22.10;99.90;;;;;;5059577;23;20752;-91
2021/07/29 18:56:05;;;;;;;3.30;1.60;;;22.00;99.90;;;;;;4988213;28;20610;-91
2021/07/29 18:58:36;;;;;;;1.80;1.37;;;21.80;99.90;;;;;;4969233;28;20694;-90
2021/07/29 19:01:06;;;;;;;3.03;1.73;;;21.90;99.90;;;;;;4981933;28;20639;-93
2021/07/29 19:03:39;;;;;;;4.17;2.10;;;21.90;99.90;;;;;;4986698;28;20626;-92
2021/07/29 19:06:13;;;;;;;3.40;2.23;;;21.90;99.90;;;;;;4975257;28;20622;-93
2021/07/29 19:08:39;;;;;;;3.27;2.27;;;21.80;99.90;;;;;;5099412;23;20666;-92
2021/07/29 19:11:05;;;;;;;3.90;1.93;;;21.70;99.90;;;;;;4999491;28;20671;-93
2021/07/29 19:13:34;;;;;;;2.00;1.80;;;21.70;99.90;;;;;;4979086;28;20190;-92
2021/07/29 20:38:46;;;;;;;1.80;1.70;;;20.00;99.90;;;;;;1029658;23;20979;-91
2021/07/29 20:41:13;;;;;;;2.27;1.70;;;19.90;99.90;;;;;;4953838;28;20667;-92
2021/07/29 20:43:40;;;;;;;2.00;1.80;;;19.90;99.90;;;;;;4958302;28;20665;-92
2021/07/29 20:46:06;;;;;;;3.13;1.80;;;19.90;99.90;;;;;;4938585;28;20638;-93
2021/07/29 20:48:32;;;;;;;1.90;1.70;;;19.80;99.90;;;;;;4970114;28;20663;-92
2021/07/29 20:50:59;;;;;;;3.37;1.93;;;19.90;99.90;;;;;;4962072;28;20219;-94
2021/07/29 20:53:25;;;;;;;3.63;1.87;;;19.80;99.90;;;;;;4999988;23;20216;-91
2021/07/29 20:55:51;;;;;;;3.60;1.83;;;19.80;99.90;;;;;;4954420;29;21073;-92
2021/07/29 20:58:16;;;;;;;2.90;1.60;;;19.70;99.90;;;;;;4968482;28;20620;-92
2021/07/29 21:00:42;;;;;;;6.23;1.90;;;19.70;99.90;;;;;;4961272;28;20262;-91
2021/07/29 21:03:08;;;;;;;3.47;1.97;;;19.60;99.90;;;;;;4938149;28;20228;-91
2021/07/29 21:05:36;;;;;;;2.00;1.60;;;19.50;99.90;;;;;;4938549;28;20181;-92
2021/07/29 21:08:04;;;;;;;2.47;1.93;;;19.50;99.90;;;;;;4938820;29;20625;-91
